NZ67R KSRQ-KCHN
Flight info
| Callsign | NZ67R |
|---|---|
| Flight time | N/A |
| Altitude | 2500 |
| Route | VFR N FF |
| Aircraft | SAVG/L-DOV/C |
Departure
| Time | 2026-04-26 18:20 |
|---|---|
| Airport | Sarasota Bradenton International Airport (KSRQ) |
Arrival
| Time | N/A |
|---|---|
| Airport | Wauchula Municipal Airport (KCHN) |
| Time | Latitude | Longitude | Altitude | Speed | Heading |
|---|---|---|---|---|---|
| 2026-04-26 18:12 | 27.39469 | -82.55736 | 34 ft | 0 kts | 41° |
| 2026-04-26 18:16 | 27.39507 | -82.55715 | 34 ft | 12 kts | 34° |
| 2026-04-26 18:17 | 27.39502 | -82.55635 | 33 ft | 13 kts | 127° |
| 2026-04-26 18:17 | 27.39439 | -82.55575 | 32 ft | 11 kts | 143° |
| 2026-04-26 18:17 | 27.39435 | -82.55500 | 29 ft | 21 kts | 39° |
| 2026-04-26 18:17 | 27.39651 | -82.55331 | 31 ft | 38 kts | 0° |
| 2026-04-26 18:18 | 27.39760 | -82.55207 | 31 ft | 7 kts | 61° |
| 2026-04-26 18:18 | 27.39765 | -82.55197 | 31 ft | 0 kts | 61° |
| 2026-04-26 18:18 | 27.39760 | -82.55177 | 31 ft | 7 kts | 131° |
| 2026-04-26 18:18 | 27.39686 | -82.55173 | 46 ft | 22 kts | 220° |
| 2026-04-26 18:19 | 27.39596 | -82.55211 | 203 ft | 35 kts | 169° |
| 2026-04-26 18:19 | 27.39424 | -82.55197 | 208 ft | 29 kts | 271° |
| 2026-04-26 18:19 | 27.39212 | -82.55058 | 354 ft | 47 kts | 140° |
| 2026-04-26 18:19 | 27.39467 | -82.54566 | 389 ft | 101 kts | 52° |
| 2026-04-26 18:20 | 27.39873 | -82.53941 | 740 ft | 93 kts | 52° |
| 2026-04-26 18:20 | 27.40298 | -82.53287 | 1020 ft | 111 kts | 56° |
| 2026-04-26 18:20 | 27.40685 | -82.52517 | 1389 ft | 116 kts | 60° |
| 2026-04-26 18:20 | 27.40797 | -82.52251 | 1493 ft | 116 kts | 62° |
| 2026-04-26 18:21 | 27.41445 | -82.50630 | 1423 ft | 141 kts | 69° |
| 2026-04-26 18:21 | 27.41744 | -82.49643 | 1557 ft | 138 kts | 70° |
| 2026-04-26 18:21 | 27.42012 | -82.48577 | 1487 ft | 145 kts | 77° |
| 2026-04-26 18:21 | 27.42134 | -82.47550 | 1541 ft | 121 kts | 92° |
| 2026-04-26 18:22 | 27.41946 | -82.47144 | 1281 ft | 44 kts | 269° |
| 2026-04-26 18:22 | 27.42020 | -82.46918 | 786 ft | 66 kts | 134° |
| 2026-04-26 18:22 | 27.42078 | -82.46568 | 146 ft | 51 kts | 317° |
| 2026-04-26 18:22 | 27.42188 | -82.46767 | 117 ft | 33 kts | 266° |
| 2026-04-26 18:23 | 27.42251 | -82.46957 | 20 ft | 4 kts | 277° |
| 2026-04-26 18:23 | 27.42251 | -82.46958 | 19 ft | 0 kts | 277° |
| 2026-04-26 18:24 | 27.42244 | -82.47021 | 129 ft | 15 kts | 229° |
| 2026-04-26 18:24 | 27.42059 | -82.46975 | 352 ft | 45 kts | 153° |
| 2026-04-26 18:24 | 27.41982 | -82.46518 | 506 ft | 74 kts | 95° |
| 2026-04-26 18:24 | 27.42065 | -82.45875 | 780 ft | 96 kts | 82° |
| 2026-04-26 18:25 | 27.42163 | -82.45126 | 1072 ft | 99 kts | 80° |
| 2026-04-26 18:25 | 27.42263 | -82.44410 | 1375 ft | 84 kts | 81° |
| 2026-04-26 18:25 | 27.42347 | -82.43771 | 1708 ft | 74 kts | 83° |
| 2026-04-26 18:25 | 27.42408 | -82.43050 | 1834 ft | 107 kts | 86° |
| 2026-04-26 18:26 | 27.42425 | -82.42224 | 1774 ft | 118 kts | 94° |